• Join FlightAware (Why Join?)
  • Login
  • US Flag 
09:16AM EDT


 

Airport Tracker/Info


-or-


 

Live Flight TrackerFlight Track Log ✈ AZU4315 ✈ 12-Nov-2013 ✈ SBSR / SJP - SBKP / VCP

Flight Track Log - Related Links

Times and Time Zones

All times are in EST time to prevent confusion due to time zone crossing. See the AZU4315 flight status page for this flight to view local times or setup timezone preferences in your user account.

Time Position Orientation Groundspeed Altitude Reporting Facility
EST Latitude Longitude Course Direction KTS MPH feet Rate Location/Type
11:08AM -20.8130 -49.4020 82° East  Level FlightAware
11:08AM -20.8290 -49.4220 229° Southwest 116 133 2,600 2,400 Climbing FlightAware
11:09AM -20.8430 -49.4250 191° South 138 159 2,900 840 Climbing FlightAware
11:10AM -20.8770 -49.4010 147° Southeast 185 213 3,700 960 Climbing FlightAware
11:11AM -20.9130 -49.3820 154° Southeast 190 219 4,600 840 Climbing FlightAware
11:11AM -20.9290 -49.3790 170° South 193 222 4,900 960 Climbing FlightAware
11:12AM -20.9710 -49.3720 171° South 197 227 5,700 1,260 Climbing FlightAware
11:12AM -21.0070 -49.3650 170° South 204 235 6,400 960 Climbing FlightAware
11:13AM -21.0420 -49.3580 169° South 208 239 6,900 840 Climbing FlightAware
11:13AM -21.0700 -49.3480 162° South 211 243 7,400 720 Climbing FlightAware
11:14AM -21.0950 -49.3140 128° Southeast 220 253 7,800 720 Climbing FlightAware
11:15AM -21.1170 -49.2830 127° Southeast 219 252 8,400 1,020 Climbing FlightAware
11:15AM -21.1300 -49.2650 128° Southeast 217 250 8,800 1,020 Climbing FlightAware
11:15AM -21.1450 -49.2450 129° Southeast 219 252 9,100 720 Climbing FlightAware
11:16AM -21.1700 -49.2090 127° Southeast 222 255 9,600 840 Climbing FlightAware
11:17AM -21.1900 -49.1810 127° Southeast 223 257 10,100 720 Climbing FlightAware
11:17AM -21.2130 -49.1500 129° Southeast 226 260 10,500 660 Climbing FlightAware
11:18AM -21.2460 -49.1040 128° Southeast 228 262 11,100 720 Climbing FlightAware
11:19AM -21.2830 -49.0520 127° Southeast 231 266 11,800 660 Climbing FlightAware
11:20AM -21.3050 -49.0220 128° Southeast 231 266 12,100 660 Climbing FlightAware
11:20AM -21.3240 -48.9950 127° Southeast 230 265 12,500 720 Climbing FlightAware
11:21AM -21.3470 -48.9620 127° Southeast 233 268 12,900 660 Climbing FlightAware
11:21AM -21.3700 -48.9300 128° Southeast 231 266 13,300 660 Climbing FlightAware
11:22AM -21.3990 -48.8910 129° Southeast 232 267 13,800 600 Climbing FlightAware
11:23AM -21.4220 -48.8580 127° Southeast 235 270 14,100 480 Climbing FlightAware
11:23AM -21.4510 -48.8180 128° Southeast 236 272 14,500 600 Climbing FlightAware
11:24AM -21.4740 -48.7860 128° Southeast 236 272 14,900 540 Climbing FlightAware
11:24AM -21.4920 -48.7610 128° Southeast 238 274 15,100 420 Climbing FlightAware
11:25AM -21.5160 -48.7260 126° Southeast 239 275 15,400 480 Climbing FlightAware
11:25AM -21.5380 -48.6960 128° Southeast 240 276 15,700 420 Climbing FlightAware
11:26AM -21.5600 -48.6660 128° Southeast 241 277 15,900 420 Climbing FlightAware
11:27AM -21.5840 -48.6320 127° Southeast 242 278 16,200 420 Climbing FlightAware
11:27AM -21.6150 -48.5890 128° Southeast 244 281 16,500 360 Climbing FlightAware
11:28AM -21.6370 -48.5580 127° Southeast 246 283 16,700 420 Climbing FlightAware
11:28AM -21.6600 -48.5240 126° Southeast 246 283 17,000 240 Climbing FlightAware
11:29AM -21.6850 -48.4900 128° Southeast 254 292 17,000  Level FlightAware
11:30AM -21.7370 -48.4170 127° Southeast 272 313 17,000  Level FlightAware
11:31AM -21.7710 -48.3690 127° Southeast 279 321 17,000  Level FlightAware
11:31AM -21.7930 -48.3380 127° Southeast 282 325 17,000  Level FlightAware
11:32AM -21.8340 -48.2800 127° Southeast 286 329 17,000  Level FlightAware
11:33AM -21.8580 -48.2470 128° Southeast 287 330 17,000  Level FlightAware
11:33AM -21.8860 -48.2060 126° Southeast 286 329 17,000  Level FlightAware
11:34AM -21.9280 -48.1480 128° Southeast 284 327 17,000  Level FlightAware
11:35AM -21.9600 -48.1020 127° Southeast 285 328 17,000  Level FlightAware
11:35AM -21.9890 -48.0610 127° Southeast 285 328 17,000  Level FlightAware
11:36AM -22.0180 -48.0200 127° Southeast 284 327 17,000  Level FlightAware
11:37AM -22.0480 -47.9770 127° Southeast 284 327 17,000  Level FlightAware
11:37AM -22.0900 -47.9200 128° Southeast 281 323 17,000  Level FlightAware
11:38AM -22.1310 -47.8880 144° Southeast 280 322 17,000  Level FlightAware
11:39AM -22.1710 -47.8580 145° Southeast 280 322 17,000  Level FlightAware
11:39AM -22.2140 -47.8240 144° Southeast 278 320 17,000 -300 Level FlightAware
11:41AM -22.2830 -47.7700 144° Southeast 267 307 16,500 -660 Descending FlightAware
11:41AM -22.3160 -47.7450 145° Southeast 264 304 15,900 -1,140 Descending FlightAware
11:42AM -22.3470 -47.7210 144° Southeast 261 300 15,300 -840 Descending FlightAware
11:42AM -22.3800 -47.6940 143° Southeast 253 291 15,000 -420 Descending FlightAware
11:43AM -22.4020 -47.6780 146° Southeast 254 292 14,900 -480 Descending FlightAware
11:43AM -22.4380 -47.6490 143° Southeast 242 278 14,500 -780 Descending FlightAware
11:44AM -22.4730 -47.6230 146° Southeast 252 290 13,900 -1,020 Descending FlightAware
11:44AM -22.5060 -47.5960 143° Southeast 263 303 13,300 -840 Descending FlightAware
11:45AM -22.5330 -47.5750 144° Southeast 273 314 13,000 -300 Descending FlightAware
11:46AM -22.5770 -47.5410 144° Southeast 275 316 13,000  Level FlightAware
11:46AM -22.6190 -47.5080 144° Southeast 278 320 13,000  Level FlightAware
11:47AM -22.6810 -47.4590 144° Southeast 279 321 13,000  Level FlightAware
11:48AM -22.7380 -47.4150 145° Southeast 278 320 13,000 -120 Level FlightAware
11:49AM -22.7710 -47.3890 144° Southeast 284 327 12,900 -360 Descending FlightAware
11:49AM -22.8170 -47.3540 145° Southeast 286 329 12,600 -540 Descending FlightAware
11:50AM -22.8570 -47.3230 144° Southeast 290 334 12,300 -540 Descending FlightAware
11:51AM -22.8930 -47.2950 144° Southeast 293 337 12,000 -540 Descending FlightAware
11:52AM -22.9630 -47.2420 145° Southeast 302 348 11,500 -480 Descending FlightAware
11:53AM -23.0370 -47.1850 145° Southeast 294 338 11,000 -660 Descending FlightAware
11:53AM -23.0830 -47.1500 145° Southeast 299 344 10,400 -1,320 Descending FlightAware
11:54AM -23.1300 -47.1140 145° Southeast 304 350 9,200 -1,980 Descending FlightAware
11:55AM -23.1580 -47.0820 134° Southeast 284 327 8,100 -2,220 Descending FlightAware
11:55AM -23.1540 -47.0420 84° East 246 283 7,000 -1,740 Descending FlightAware
11:56AM -23.1130 -47.0100 36° Northeast 196 226 5,800 -1,320 Descending FlightAware
11:56AM -23.0870 -47.0240 334° Northwest 155 178 5,200 -1,080 Descending FlightAware
11:57AM -23.0690 -47.0480 309° West 152 175 4,400 -1,140 Descending FlightAware
11:58AM -23.0510 -47.0730 308° West 111 128 3,500 -1,080 Descending FlightAware
11:58AM -23.0440 -47.0840 305° West 116 133 3,200 -360 Descending FlightAware
11:59AM -23.0360 -47.0940 311° West 116 133 3,200  Level FlightAware
12:02PM -23.0082 -47.1347 307° West  Level Estimated
12:03PM -23.0082 -47.1347 335° Northwest  Level Estimated
12:04PM -23.0082 -47.1347 335° Northwest  Level Estimated
12:05PM -23.0082 -47.1347 335° Northwest  Level Estimated
12:06PM -23.0082 -47.1347 335° Northwest  Level Estimated
12:07PM -23.0082 -47.1347 335° Northwest  Level Estimated
12:08PM -23.0082 -47.1347 335° Northwest  Level Estimated
12:09PM -23.0082 -47.1347 335° Northwest  Level Estimated
12:10PM -23.0082 -47.1347 335° Northwest  Level Estimated
12:11PM -23.0082 -47.1347 335° Northwest  Level Estimated
12:12PM -23.0082 -47.1347 335° Northwest  Level Estimated
12:13PM -23.0082 -47.1347 335° Northwest  Level Estimated
12:14PM -23.0082 -47.1347 335° Northwest  Level Estimated
12:15PM -23.0082 -47.1347 335° Northwest  Level Estimated
12:16PM -23.0082 -47.1347 335° Northwest  Level Estimated
12:17PM -23.0082 -47.1347 335° Northwest  Level Estimated
12:18PM -23.0082 -47.1347 335° Northwest  Level Estimated
12:19PM -23.0082 -47.1347 335° Northwest  Level Estimated
12:20PM -23.0082 -47.1347 335° Northwest  Level Estimated
12:21PM -23.0082 -47.1347 335° Northwest  Level Estimated
12:22PM -23.0082 -47.1347 335° Northwest  Level Estimated
12:23PM -23.0082 -47.1347 335° Northwest  Level Estimated
12:24PM -23.0082 -47.1347 335° Northwest  Level Estimated